sensor_id;sensor_type;location;lat;lon;timestamp;temperature;humidity
8988;DHT22;4529;51.360;12.474;2023-06-19T00:03:55;18.40;99.90
8988;DHT22;4529;51.360;12.474;2023-06-19T00:08:59;18.30;99.90
8988;DHT22;4529;51.360;12.474;2023-06-19T00:14:04;18.20;99.90
8988;DHT22;4529;51.360;12.474;2023-06-19T00:19:09;18.20;99.90
8988;DHT22;4529;51.360;12.474;2023-06-19T00:24:11;18.10;99.90
8988;DHT22;4529;51.360;12.474;2023-06-19T00:29:15;18.10;99.90
8988;DHT22;4529;51.360;12.474;2023-06-19T00:34:19;18.10;99.90
8988;DHT22;4529;51.360;12.474;2023-06-19T00:39:23;18.10;99.90
8988;DHT22;4529;51.360;12.474;2023-06-19T00:44:26;18.10;99.90
8988;DHT22;4529;51.360;12.474;2023-06-19T00:49:29;18.20;99.90
8988;DHT22;4529;51.360;12.474;2023-06-19T00:54:33;18.20;99.90
8988;DHT22;4529;51.360;12.474;2023-06-19T00:59:36;18.30;99.90
8988;DHT22;4529;51.360;12.474;2023-06-19T01:04:40;18.40;99.90
8988;DHT22;4529;51.360;12.474;2023-06-19T01:09:53;18.40;99.90
8988;DHT22;4529;51.360;12.474;2023-06-19T01:14:58;18.40;99.90
8988;DHT22;4529;51.360;12.474;2023-06-19T01:20:01;18.50;99.90
8988;DHT22;4529;51.360;12.474;2023-06-19T01:25:05;18.50;99.90
8988;DHT22;4529;51.360;12.474;2023-06-19T01:30:09;18.50;99.90
8988;DHT22;4529;51.360;12.474;2023-06-19T01:35:13;18.60;99.90
8988;DHT22;4529;51.360;12.474;2023-06-19T01:40:20;18.60;99.90
8988;DHT22;4529;51.360;12.474;2023-06-19T01:45:24;18.70;99.90
8988;DHT22;4529;51.360;12.474;2023-06-19T01:50:28;18.60;99.90
8988;DHT22;4529;51.360;12.474;2023-06-19T01:55:32;18.60;99.90
8988;DHT22;4529;51.360;12.474;2023-06-19T02:00:36;18.70;99.90
8988;DHT22;4529;51.360;12.474;2023-06-19T02:05:40;18.50;99.90
8988;DHT22;4529;51.360;12.474;2023-06-19T02:10:44;18.40;99.90
8988;DHT22;4529;51.360;12.474;2023-06-19T02:15:48;18.40;99.90
8988;DHT22;4529;51.360;12.474;2023-06-19T02:20:51;18.40;99.90
8988;DHT22;4529;51.360;12.474;2023-06-19T02:25:55;18.30;99.90
8988;DHT22;4529;51.360;12.474;2023-06-19T02:30:58;18.20;99.90
8988;DHT22;4529;51.360;12.474;2023-06-19T02:36:02;18.10;99.90
8988;DHT22;4529;51.360;12.474;2023-06-19T02:41:05;18.00;99.90
8988;DHT22;4529;51.360;12.474;2023-06-19T02:46:09;17.90;99.90
8988;DHT22;4529;51.360;12.474;2023-06-19T02:51:12;17.80;99.90
8988;DHT22;4529;51.360;12.474;2023-06-19T02:56:15;17.80;99.90
8988;DHT22;4529;51.360;12.474;2023-06-19T03:01:19;17.80;99.90
8988;DHT22;4529;51.360;12.474;2023-06-19T03:06:22;17.80;99.90
8988;DHT22;4529;51.360;12.474;2023-06-19T03:11:26;17.70;99.90
8988;DHT22;4529;51.360;12.474;2023-06-19T03:16:29;17.70;99.90
8988;DHT22;4529;51.360;12.474;2023-06-19T03:21:33;17.60;99.90
8988;DHT22;4529;51.360;12.474;2023-06-19T03:26:36;17.60;99.90
8988;DHT22;4529;51.360;12.474;2023-06-19T03:31:40;17.60;99.90
8988;DHT22;4529;51.360;12.474;2023-06-19T03:36:43;17.60;99.90
8988;DHT22;4529;51.360;12.474;2023-06-19T03:41:47;17.70;99.90
8988;DHT22;4529;51.360;12.474;2023-06-19T03:46:50;17.70;99.90
8988;DHT22;4529;51.360;12.474;2023-06-19T03:51:54;17.80;99.90
8988;DHT22;4529;51.360;12.474;2023-06-19T03:56:57;17.90;99.90
8988;DHT22;4529;51.360;12.474;2023-06-19T04:02:00;18.10;99.90
8988;DHT22;4529;51.360;12.474;2023-06-19T04:07:04;18.20;99.90
8988;DHT22;4529;51.360;12.474;2023-06-19T04:12:08;18.40;99.90
8988;DHT22;4529;51.360;12.474;2023-06-19T04:17:12;18.40;99.90
8988;DHT22;4529;51.360;12.474;2023-06-19T04:22:15;18.50;99.90
8988;DHT22;4529;51.360;12.474;2023-06-19T04:27:19;18.60;99.90
8988;DHT22;4529;51.360;12.474;2023-06-19T04:32:22;18.70;99.90
8988;DHT22;4529;51.360;12.474;2023-06-19T04:37:26;18.80;99.90
8988;DHT22;4529;51.360;12.474;2023-06-19T04:42:29;18.90;99.90
8988;DHT22;4529;51.360;12.474;2023-06-19T04:47:33;18.60;99.90
8988;DHT22;4529;51.360;12.474;2023-06-19T04:52:36;18.60;99.90
8988;DHT22;4529;51.360;12.474;2023-06-19T04:57:39;18.70;99.90
8988;DHT22;4529;51.360;12.474;2023-06-19T05:02:43;18.80;99.90
8988;DHT22;4529;51.360;12.474;2023-06-19T05:07:46;19.10;99.90
8988;DHT22;4529;51.360;12.474;2023-06-19T05:12:50;19.20;99.90
8988;DHT22;4529;51.360;12.474;2023-06-19T05:17:53;19.50;99.90
8988;DHT22;4529;51.360;12.474;2023-06-19T05:22:57;19.60;99.90
8988;DHT22;4529;51.360;12.474;2023-06-19T05:28:00;19.70;99.90
8988;DHT22;4529;51.360;12.474;2023-06-19T05:33:05;19.80;99.90
8988;DHT22;4529;51.360;12.474;2023-06-19T05:38:08;19.80;99.90
8988;DHT22;4529;51.360;12.474;2023-06-19T05:43:12;19.80;99.90
8988;DHT22;4529;51.360;12.474;2023-06-19T05:48:16;19.90;99.90
8988;DHT22;4529;51.360;12.474;2023-06-19T05:53:20;19.90;99.90
8988;DHT22;4529;51.360;12.474;2023-06-19T05:58:25;19.90;99.90
8988;DHT22;4529;51.360;12.474;2023-06-19T06:03:29;19.90;99.90
8988;DHT22;4529;51.360;12.474;2023-06-19T06:08:33;19.90;99.90
8988;DHT22;4529;51.360;12.474;2023-06-19T06:13:42;19.90;99.90
8988;DHT22;4529;51.360;12.474;2023-06-19T06:18:46;19.80;99.90
8988;DHT22;4529;51.360;12.474;2023-06-19T06:23:50;19.80;99.90
8988;DHT22;4529;51.360;12.474;2023-06-19T06:28:54;19.80;99.90
8988;DHT22;4529;51.360;12.474;2023-06-19T06:33:58;19.80;99.90
8988;DHT22;4529;51.360;12.474;2023-06-19T06:39:02;19.70;99.90
8988;DHT22;4529;51.360;12.474;2023-06-19T06:44:06;19.70;99.90
8988;DHT22;4529;51.360;12.474;2023-06-19T06:49:10;19.60;99.90
8988;DHT22;4529;51.360;12.474;2023-06-19T06:54:13;19.60;99.90
8988;DHT22;4529;51.360;12.474;2023-06-19T06:59:16;19.50;99.90
8988;DHT22;4529;51.360;12.474;2023-06-19T07:04:20;19.30;99.90
8988;DHT22;4529;51.360;12.474;2023-06-19T07:09:23;19.20;99.90
8988;DHT22;4529;51.360;12.474;2023-06-19T07:14:27;19.20;99.90
8988;DHT22;4529;51.360;12.474;2023-06-19T07:19:30;19.30;99.90
8988;DHT22;4529;51.360;12.474;2023-06-19T07:24:34;19.20;99.90
8988;DHT22;4529;51.360;12.474;2023-06-19T07:29:37;19.20;99.90
8988;DHT22;4529;51.360;12.474;2023-06-19T07:34:40;19.30;99.90
8988;DHT22;4529;51.360;12.474;2023-06-19T07:39:47;19.30;99.90
8988;DHT22;4529;51.360;12.474;2023-06-19T07:44:47;19.30;99.90
8988;DHT22;4529;51.360;12.474;2023-06-19T07:49:51;19.50;99.90
8988;DHT22;4529;51.360;12.474;2023-06-19T07:54:55;19.60;99.90
8988;DHT22;4529;51.360;12.474;2023-06-19T07:59:58;19.70;99.90
8988;DHT22;4529;51.360;12.474;2023-06-19T08:05:01;19.80;99.90
8988;DHT22;4529;51.360;12.474;2023-06-19T08:10:05;20.00;99.90
8988;DHT22;4529;51.360;12.474;2023-06-19T08:15:09;20.20;99.90
8988;DHT22;4529;51.360;12.474;2023-06-19T08:20:12;20.40;99.90
8988;DHT22;4529;51.360;12.474;2023-06-19T08:25:15;20.50;99.90
8988;DHT22;4529;51.360;12.474;2023-06-19T08:30:19;20.60;99.90
8988;DHT22;4529;51.360;12.474;2023-06-19T08:35:22;20.80;99.90
8988;DHT22;4529;51.360;12.474;2023-06-19T08:40:26;20.90;99.90
8988;DHT22;4529;51.360;12.474;2023-06-19T08:45:29;21.20;99.90
8988;DHT22;4529;51.360;12.474;2023-06-19T08:50:33;21.40;99.90
8988;DHT22;4529;51.360;12.474;2023-06-19T08:55:36;21.60;99.90
8988;DHT22;4529;51.360;12.474;2023-06-19T09:00:40;21.90;99.90
8988;DHT22;4529;51.360;12.474;2023-06-19T09:05:43;22.00;99.90
8988;DHT22;4529;51.360;12.474;2023-06-19T09:10:59;22.10;99.90
8988;DHT22;4529;51.360;12.474;2023-06-19T09:16:05;22.30;99.90
8988;DHT22;4529;51.360;12.474;2023-06-19T09:21:14;22.50;99.90
8988;DHT22;4529;51.360;12.474;2023-06-19T09:26:14;22.90;99.90
8988;DHT22;4529;51.360;12.474;2023-06-19T09:31:18;23.50;99.90
8988;DHT22;4529;51.360;12.474;2023-06-19T09:36:21;24.10;99.90
8988;DHT22;4529;51.360;12.474;2023-06-19T09:41:25;24.50;99.90
8988;DHT22;4529;51.360;12.474;2023-06-19T09:46:31;25.10;99.90
8988;DHT22;4529;51.360;12.474;2023-06-19T09:51:32;25.60;99.90
8988;DHT22;4529;51.360;12.474;2023-06-19T09:56:35;25.70;99.90
8988;DHT22;4529;51.360;12.474;2023-06-19T10:01:38;25.80;99.90
8988;DHT22;4529;51.360;12.474;2023-06-19T10:06:46;25.70;99.90
8988;DHT22;4529;51.360;12.474;2023-06-19T10:11:50;25.60;99.90
8988;DHT22;4529;51.360;12.474;2023-06-19T10:16:53;25.80;99.90
8988;DHT22;4529;51.360;12.474;2023-06-19T10:21:57;25.90;99.90
8988;DHT22;4529;51.360;12.474;2023-06-19T10:27:02;25.90;99.90
8988;DHT22;4529;51.360;12.474;2023-06-19T10:32:06;26.20;99.90
8988;DHT22;4529;51.360;12.474;2023-06-19T10:37:09;26.10;99.90
8988;DHT22;4529;51.360;12.474;2023-06-19T10:42:12;26.30;99.90
8988;DHT22;4529;51.360;12.474;2023-06-19T10:47:17;26.70;99.90
8988;DHT22;4529;51.360;12.474;2023-06-19T10:52:20;26.70;99.90
8988;DHT22;4529;51.360;12.474;2023-06-19T10:57:29;27.00;99.90
8988;DHT22;4529;51.360;12.474;2023-06-19T11:02:33;27.30;99.90
8988;DHT22;4529;51.360;12.474;2023-06-19T11:07:37;27.30;99.90
8988;DHT22;4529;51.360;12.474;2023-06-19T11:12:42;27.40;99.90
8988;DHT22;4529;51.360;12.474;2023-06-19T11:17:46;27.10;99.80
8988;DHT22;4529;51.360;12.474;2023-06-19T11:22:54;27.10;99.70
8988;DHT22;4529;51.360;12.474;2023-06-19T11:27:54;26.90;99.90
8988;DHT22;4529;51.360;12.474;2023-06-19T11:32:58;27.10;99.90
8988;DHT22;4529;51.360;12.474;2023-06-19T11:38:02;27.10;99.80
8988;DHT22;4529;51.360;12.474;2023-06-19T11:43:06;27.20;99.90
8988;DHT22;4529;51.360;12.474;2023-06-19T11:48:10;27.40;99.90
8988;DHT22;4529;51.360;12.474;2023-06-19T11:53:15;27.60;99.90
8988;DHT22;4529;51.360;12.474;2023-06-19T11:58:19;27.80;99.90
8988;DHT22;4529;51.360;12.474;2023-06-19T12:03:23;27.70;99.30
8988;DHT22;4529;51.360;12.474;2023-06-19T12:08:27;27.70;99.60
8988;DHT22;4529;51.360;12.474;2023-06-19T12:13:31;28.00;98.20
8988;DHT22;4529;51.360;12.474;2023-06-19T12:18:35;28.20;98.20
8988;DHT22;4529;51.360;12.474;2023-06-19T12:23:39;28.30;98.60
8988;DHT22;4529;51.360;12.474;2023-06-19T12:28:43;28.40;96.60
8988;DHT22;4529;51.360;12.474;2023-06-19T12:33:48;28.40;97.20
8988;DHT22;4529;51.360;12.474;2023-06-19T12:38:54;28.40;96.80
8988;DHT22;4529;51.360;12.474;2023-06-19T12:43:58;28.40;97.10
8988;DHT22;4529;51.360;12.474;2023-06-19T12:49:01;28.40;95.80
8988;DHT22;4529;51.360;12.474;2023-06-19T12:54:05;28.60;97.10
8988;DHT22;4529;51.360;12.474;2023-06-19T12:59:08;28.50;94.00
8988;DHT22;4529;51.360;12.474;2023-06-19T13:04:12;28.30;94.40
8988;DHT22;4529;51.360;12.474;2023-06-19T13:09:15;28.40;94.20
8988;DHT22;4529;51.360;12.474;2023-06-19T13:14:19;28.30;92.80
8988;DHT22;4529;51.360;12.474;2023-06-19T13:19:22;28.20;92.90
8988;DHT22;4529;51.360;12.474;2023-06-19T13:24:26;28.20;92.90
8988;DHT22;4529;51.360;12.474;2023-06-19T13:29:29;28.30;94.00
8988;DHT22;4529;51.360;12.474;2023-06-19T13:34:33;28.40;94.10
8988;DHT22;4529;51.360;12.474;2023-06-19T13:39:36;28.40;93.70
8988;DHT22;4529;51.360;12.474;2023-06-19T13:44:39;28.20;93.30
8988;DHT22;4529;51.360;12.474;2023-06-19T13:49:43;28.30;92.30
8988;DHT22;4529;51.360;12.474;2023-06-19T13:54:46;28.20;91.70
8988;DHT22;4529;51.360;12.474;2023-06-19T13:59:50;28.40;92.10
8988;DHT22;4529;51.360;12.474;2023-06-19T14:04:53;28.50;90.30
8988;DHT22;4529;51.360;12.474;2023-06-19T14:09:57;28.60;90.00
8988;DHT22;4529;51.360;12.474;2023-06-19T14:15:00;28.60;89.90
8988;DHT22;4529;51.360;12.474;2023-06-19T14:20:05;28.40;92.70
8988;DHT22;4529;51.360;12.474;2023-06-19T14:25:08;28.40;92.60
8988;DHT22;4529;51.360;12.474;2023-06-19T14:30:12;28.20;93.90
8988;DHT22;4529;51.360;12.474;2023-06-19T14:35:16;27.90;93.80
8988;DHT22;4529;51.360;12.474;2023-06-19T14:40:19;27.90;93.90
8988;DHT22;4529;51.360;12.474;2023-06-19T14:45:23;28.30;93.60
8988;DHT22;4529;51.360;12.474;2023-06-19T14:50:27;28.60;93.30
8988;DHT22;4529;51.360;12.474;2023-06-19T14:55:31;28.70;93.20
8988;DHT22;4529;51.360;12.474;2023-06-19T15:00:35;28.80;93.50
8988;DHT22;4529;51.360;12.474;2023-06-19T15:05:39;28.80;93.50
8988;DHT22;4529;51.360;12.474;2023-06-19T15:10:42;28.70;92.00
8988;DHT22;4529;51.360;12.474;2023-06-19T15:15:46;28.70;92.30
8988;DHT22;4529;51.360;12.474;2023-06-19T15:20:49;28.60;93.00
8988;DHT22;4529;51.360;12.474;2023-06-19T15:25:53;28.60;93.30
8988;DHT22;4529;51.360;12.474;2023-06-19T15:30:57;28.60;93.30
8988;DHT22;4529;51.360;12.474;2023-06-19T15:36:00;28.70;92.40
8988;DHT22;4529;51.360;12.474;2023-06-19T15:41:05;28.70;91.80
8988;DHT22;4529;51.360;12.474;2023-06-19T15:46:08;28.70;91.90
8988;DHT22;4529;51.360;12.474;2023-06-19T15:51:11;28.50;92.90
8988;DHT22;4529;51.360;12.474;2023-06-19T15:56:15;28.40;93.20
8988;DHT22;4529;51.360;12.474;2023-06-19T16:01:18;28.40;93.00
8988;DHT22;4529;51.360;12.474;2023-06-19T16:06:22;28.40;93.60
8988;DHT22;4529;51.360;12.474;2023-06-19T16:11:25;28.30;93.50
8988;DHT22;4529;51.360;12.474;2023-06-19T16:16:29;28.40;93.90
8988;DHT22;4529;51.360;12.474;2023-06-19T16:21:32;28.30;93.90
8988;DHT22;4529;51.360;12.474;2023-06-19T16:26:36;28.30;93.10
8988;DHT22;4529;51.360;12.474;2023-06-19T16:31:39;28.30;93.40
8988;DHT22;4529;51.360;12.474;2023-06-19T16:36:43;28.10;95.30
8988;DHT22;4529;51.360;12.474;2023-06-19T16:41:46;27.80;95.50
8988;DHT22;4529;51.360;12.474;2023-06-19T16:46:50;27.90;94.50
8988;DHT22;4529;51.360;12.474;2023-06-19T16:51:53;27.50;96.50
8988;DHT22;4529;51.360;12.474;2023-06-19T16:56:56;27.40;96.80
8988;DHT22;4529;51.360;12.474;2023-06-19T17:02:00;27.10;98.60
8988;DHT22;4529;51.360;12.474;2023-06-19T17:07:04;27.00;98.30
8988;DHT22;4529;51.360;12.474;2023-06-19T17:12:07;27.00;98.80
8988;DHT22;4529;51.360;12.474;2023-06-19T17:17:11;26.80;99.30
8988;DHT22;4529;51.360;12.474;2023-06-19T17:22:15;26.90;98.30
8988;DHT22;4529;51.360;12.474;2023-06-19T17:27:20;26.70;99.90
8988;DHT22;4529;51.360;12.474;2023-06-19T17:32:24;26.70;99.50
8988;DHT22;4529;51.360;12.474;2023-06-19T17:37:28;26.60;99.50
8988;DHT22;4529;51.360;12.474;2023-06-19T17:42:32;26.50;99.90
8988;DHT22;4529;51.360;12.474;2023-06-19T17:47:36;26.40;99.90
8988;DHT22;4529;51.360;12.474;2023-06-19T17:52:40;26.30;99.90
8988;DHT22;4529;51.360;12.474;2023-06-19T17:57:44;26.20;99.90
8988;DHT22;4529;51.360;12.474;2023-06-19T18:02:48;26.10;99.90
8988;DHT22;4529;51.360;12.474;2023-06-19T18:07:53;26.10;99.90
8988;DHT22;4529;51.360;12.474;2023-06-19T18:12:57;26.20;99.90
8988;DHT22;4529;51.360;12.474;2023-06-19T18:18:01;26.10;99.90
8988;DHT22;4529;51.360;12.474;2023-06-19T18:23:05;26.20;99.90
8988;DHT22;4529;51.360;12.474;2023-06-19T18:28:09;26.00;99.90
8988;DHT22;4529;51.360;12.474;2023-06-19T18:33:13;25.90;99.90
8988;DHT22;4529;51.360;12.474;2023-06-19T18:38:17;25.90;99.90
8988;DHT22;4529;51.360;12.474;2023-06-19T18:43:21;25.90;99.90
8988;DHT22;4529;51.360;12.474;2023-06-19T18:48:26;25.90;99.90
8988;DHT22;4529;51.360;12.474;2023-06-19T18:53:30;25.70;99.90
8988;DHT22;4529;51.360;12.474;2023-06-19T18:58:34;25.50;99.90
8988;DHT22;4529;51.360;12.474;2023-06-19T19:03:39;25.30;99.90
8988;DHT22;4529;51.360;12.474;2023-06-19T19:08:42;25.00;99.90
8988;DHT22;4529;51.360;12.474;2023-06-19T19:13:46;24.80;99.90
8988;DHT22;4529;51.360;12.474;2023-06-19T19:18:50;24.70;99.90
8988;DHT22;4529;51.360;12.474;2023-06-19T19:23:53;24.50;99.90
8988;DHT22;4529;51.360;12.474;2023-06-19T19:28:57;24.10;99.90
8988;DHT22;4529;51.360;12.474;2023-06-19T19:34:01;23.90;99.90
8988;DHT22;4529;51.360;12.474;2023-06-19T19:39:05;23.80;99.90
8988;DHT22;4529;51.360;12.474;2023-06-19T19:44:08;23.80;99.90
8988;DHT22;4529;51.360;12.474;2023-06-19T19:49:12;23.70;99.90
8988;DHT22;4529;51.360;12.474;2023-06-19T19:54:15;23.40;99.90
8988;DHT22;4529;51.360;12.474;2023-06-19T19:59:19;23.30;99.90
8988;DHT22;4529;51.360;12.474;2023-06-19T20:04:22;23.10;99.90
8988;DHT22;4529;51.360;12.474;2023-06-19T20:09:26;22.80;99.90
8988;DHT22;4529;51.360;12.474;2023-06-19T20:14:29;22.80;99.90
8988;DHT22;4529;51.360;12.474;2023-06-19T20:19:33;22.60;99.90
8988;DHT22;4529;51.360;12.474;2023-06-19T20:24:36;22.50;99.90
8988;DHT22;4529;51.360;12.474;2023-06-19T20:29:40;22.30;99.90
8988;DHT22;4529;51.360;12.474;2023-06-19T20:34:43;22.30;99.90
8988;DHT22;4529;51.360;12.474;2023-06-19T20:39:46;22.20;99.90
8988;DHT22;4529;51.360;12.474;2023-06-19T20:44:50;22.00;99.90
8988;DHT22;4529;51.360;12.474;2023-06-19T20:49:53;22.00;99.90
8988;DHT22;4529;51.360;12.474;2023-06-19T20:54:57;22.00;99.90
8988;DHT22;4529;51.360;12.474;2023-06-19T21:00:01;21.80;99.90
8988;DHT22;4529;51.360;12.474;2023-06-19T21:05:05;21.70;99.90
8988;DHT22;4529;51.360;12.474;2023-06-19T21:10:09;21.70;99.90
8988;DHT22;4529;51.360;12.474;2023-06-19T21:15:12;21.80;99.90
8988;DHT22;4529;51.360;12.474;2023-06-19T21:20:16;22.10;99.90
8988;DHT22;4529;51.360;12.474;2023-06-19T21:25:19;22.10;99.90
8988;DHT22;4529;51.360;12.474;2023-06-19T21:30:22;22.10;99.90
8988;DHT22;4529;51.360;12.474;2023-06-19T21:35:26;22.30;99.90
8988;DHT22;4529;51.360;12.474;2023-06-19T21:40:29;22.50;99.90
8988;DHT22;4529;51.360;12.474;2023-06-19T21:45:33;22.50;99.90
8988;DHT22;4529;51.360;12.474;2023-06-19T21:50:36;22.50;99.90
8988;DHT22;4529;51.360;12.474;2023-06-19T21:55:40;22.50;99.90
8988;DHT22;4529;51.360;12.474;2023-06-19T22:00:43;22.50;99.90
8988;DHT22;4529;51.360;12.474;2023-06-19T22:05:47;22.50;99.90
8988;DHT22;4529;51.360;12.474;2023-06-19T22:10:50;22.50;99.90
8988;DHT22;4529;51.360;12.474;2023-06-19T22:15:54;22.40;99.90
8988;DHT22;4529;51.360;12.474;2023-06-19T22:20:57;22.40;99.90
8988;DHT22;4529;51.360;12.474;2023-06-19T22:26:01;22.30;99.90
8988;DHT22;4529;51.360;12.474;2023-06-19T22:31:04;22.20;99.90
8988;DHT22;4529;51.360;12.474;2023-06-19T22:36:08;22.10;99.90
8988;DHT22;4529;51.360;12.474;2023-06-19T22:41:11;22.10;99.90
8988;DHT22;4529;51.360;12.474;2023-06-19T22:46:14;22.00;99.90
8988;DHT22;4529;51.360;12.474;2023-06-19T22:51:18;22.00;99.90
8988;DHT22;4529;51.360;12.474;2023-06-19T22:56:22;21.90;99.90
8988;DHT22;4529;51.360;12.474;2023-06-19T23:01:25;21.90;99.90
8988;DHT22;4529;51.360;12.474;2023-06-19T23:06:28;21.90;99.90
8988;DHT22;4529;51.360;12.474;2023-06-19T23:11:32;21.90;99.90
8988;DHT22;4529;51.360;12.474;2023-06-19T23:16:36;21.70;99.90
8988;DHT22;4529;51.360;12.474;2023-06-19T23:21:40;21.70;99.90
8988;DHT22;4529;51.360;12.474;2023-06-19T23:26:44;21.70;99.90
8988;DHT22;4529;51.360;12.474;2023-06-19T23:31:48;21.70;99.90
8988;DHT22;4529;51.360;12.474;2023-06-19T23:36:52;21.60;99.90
8988;DHT22;4529;51.360;12.474;2023-06-19T23:41:57;21.50;99.90
8988;DHT22;4529;51.360;12.474;2023-06-19T23:47:01;21.50;99.90
8988;DHT22;4529;51.360;12.474;2023-06-19T23:52:08;21.80;99.90
8988;DHT22;4529;51.360;12.474;2023-06-19T23:57:11;21.70;99.90
